Time;durP1;ratioP1;P1;durP2;ratioP2;P2;SDS_P1;SDS_P2;PMS_P1;PMS_P2;Temp;Humidity;BMP_temperature;BMP_pressure;BME280_temperature;BME280_humidity;BME280_pressure;Samples;Min_cycle;Max_cycle;Signal;HPM_P1;HPM_P2
2023/12/22 00:02:25;;;;;;;;;6.00;4.00;;;;;14.33;74.11;100722.50;4866108;29;45423;-82
2023/12/22 00:04:51;;;;;;;;;2.00;2.00;;;;;14.31;73.29;100718.06;4883073;29;44996;-83
2023/12/22 00:07:16;;;;;;;;;3.00;3.00;;;;;14.29;73.14;100726.09;4864878;29;47111;-83
2023/12/22 00:09:41;;;;;;;;;3.75;3.75;;;;;14.27;73.06;100724.31;4882263;29;44874;-82
2023/12/22 00:12:07;;;;;;;;;4.75;3.50;;;;;14.21;72.40;100722.53;4881140;29;45417;-82
2023/12/22 00:14:32;;;;;;;;;3.00;2.75;;;;;14.20;72.15;100727.00;4882362;29;45502;-82
2023/12/22 00:16:59;;;;;;;;;4.75;2.00;;;;;14.27;71.60;100714.50;4879966;29;48440;-81
2023/12/22 00:19:24;;;;;;;;;3.00;1.00;;;;;14.13;71.88;100702.94;4881479;29;45380;-82
2023/12/22 00:21:49;;;;;;;;;4.50;1.50;;;;;14.12;71.67;100707.41;4884597;29;45422;-83
2023/12/22 00:24:15;;;;;;;;;5.25;2.75;;;;;14.12;71.21;100702.06;4883976;29;45738;-82
2023/12/22 00:26:40;;;;;;;;;2.50;2.50;;;;;14.05;70.98;100700.25;4884989;29;45517;-82
2023/12/22 00:29:07;;;;;;;;;4.75;1.50;;;;;14.13;71.48;100687.78;4866664;29;46087;-82
2023/12/22 00:31:32;;;;;;;;;5.25;4.00;;;;;14.08;70.83;100710.97;4883464;29;45538;-82
2023/12/22 00:33:58;;;;;;;;;5.25;4.75;;;;;14.07;70.88;100700.25;4867214;29;45407;-82
2023/12/22 00:36:24;;;;;;;;;2.00;2.00;;;;;13.98;70.67;100687.81;4883685;29;45398;-81
2023/12/22 00:38:50;;;;;;;;;2.00;2.00;;;;;13.96;70.85;100690.47;4883687;29;45468;-81
2023/12/22 00:41:15;;;;;;;;;4.00;2.00;;;;;13.92;70.33;100702.06;4866619;29;45495;-82
2023/12/22 00:43:40;;;;;;;;;5.00;3.75;;;;;13.91;70.46;100705.59;4881929;29;45540;-82
2023/12/22 00:46:06;;;;;;;;;3.00;1.50;;;;;13.93;70.55;100700.28;4866571;29;47058;-82
2023/12/22 00:48:31;;;;;;;;;3.00;2.00;;;;;13.78;70.10;100685.13;4866747;29;45422;-82
2023/12/22 00:50:57;;;;;;;;;3.75;3.00;;;;;13.81;70.28;100679.78;4866276;29;45509;-82
2023/12/22 00:53:22;;;;;;;;;2.00;2.00;;;;;13.85;70.23;100702.06;4884656;29;45449;-82
2023/12/22 00:55:47;;;;;;;;;3.50;3.50;;;;;13.80;70.32;100691.38;4883608;29;45063;-82
2023/12/22 00:58:13;;;;;;;;;4.00;3.25;;;;;13.79;70.73;100709.19;4883298;29;45421;-82
2023/12/22 01:00:38;;;;;;;;;2.75;2.50;;;;;13.73;70.68;100686.91;4883770;29;45433;-82
2023/12/22 01:03:03;;;;;;;;;2.50;2.50;;;;;13.78;70.89;100701.16;4883749;29;45573;-81
2023/12/22 01:05:29;;;;;;;;;2.50;2.25;;;;;13.80;70.68;100697.59;4884002;29;46102;-81
2023/12/22 01:07:54;;;;;;;;;5.75;4.75;;;;;13.77;70.61;100692.25;4866827;29;45485;-82
2023/12/22 01:10:19;;;;;;;;;1.75;1.00;;;;;13.79;71.15;100697.59;4884583;29;45430;-80
2023/12/22 01:12:45;;;;;;;;;2.50;2.50;;;;;13.75;70.74;100701.16;4868577;29;45446;-81
2023/12/22 01:15:11;;;;;;;;;4.25;2.00;;;;;13.79;70.75;100725.25;4884944;29;46297;-81
2023/12/22 01:17:37;;;;;;;;;3.25;2.75;;;;;13.69;71.20;100726.09;4865535;29;45454;-80
2023/12/22 01:20:02;;;;;;;;;1.50;1.00;;;;;13.76;71.32;100725.22;4883109;29;45527;-81
2023/12/22 01:22:28;;;;;;;;;4.00;2.25;;;;;13.72;71.55;100723.44;4865889;29;45472;-81
2023/12/22 01:24:53;;;;;;;;;4.75;4.00;;;;;13.73;71.94;100714.50;4882932;29;45521;-81
2023/12/22 01:27:19;;;;;;;;;3.75;3.25;;;;;13.77;72.01;100718.97;4884368;29;45805;-81
2023/12/22 01:29:45;;;;;;;;;3.75;2.00;;;;;13.82;72.32;100726.13;4867264;29;45582;-81
2023/12/22 01:32:10;;;;;;;;;5.50;2.25;;;;;13.82;72.40;100719.00;4864119;29;45439;-82
2023/12/22 01:34:36;;;;;;;;;2.50;2.50;;;;;13.82;72.74;100712.78;4881948;29;45397;-81
2023/12/22 01:37:01;;;;;;;;;3.00;1.00;;;;;13.85;73.34;100723.44;4863306;29;45822;-81
2023/12/22 01:39:27;;;;;;;;;7.00;2.00;;;;;13.73;73.69;100714.50;4881093;29;45431;-81
2023/12/22 01:41:52;;;;;;;;;4.25;3.00;;;;;13.77;74.38;100721.63;4882201;29;45340;-82
2023/12/22 01:44:18;;;;;;;;;4.50;3.25;;;;;13.65;74.47;100710.06;4881306;29;46308;-82
2023/12/22 01:46:43;;;;;;;;;1.67;1.67;;;;;13.71;74.81;100702.03;4864762;29;45381;-81
2023/12/22 01:49:10;;;;;;;;;2.25;2.25;;;;;13.77;75.25;100694.03;4882166;29;45804;-82
2023/12/22 01:51:39;;;;;;;;;2.00;1.25;;;;;13.78;75.75;100699.38;4883178;29;45340;-81
2023/12/22 01:54:05;;;;;;;;;0.33;0.00;;;;;13.57;75.64;100672.63;4882581;29;45283;-82
2023/12/22 01:56:31;;;;;;;;;3.00;3.00;;;;;13.53;75.96;100674.44;4882676;29;45476;-81
2023/12/22 01:59:00;;;;;;;;;3.00;1.00;;;;;13.70;76.29;100681.56;4866784;29;45541;-81
2023/12/22 02:01:27;;;;;;;;;3.25;2.50;;;;;13.64;77.00;100713.66;4866216;29;45537;-82
2023/12/22 02:03:54;;;;;;;;;3.25;2.50;;;;;13.72;76.68;100718.09;4866404;29;47634;-81
2023/12/22 02:06:20;;;;;;;;;2.00;2.00;;;;;13.55;76.55;100690.44;4883883;29;45332;-81
2023/12/22 02:08:49;;;;;;;;;4.75;1.00;;;;;13.82;76.49;100718.13;4865082;29;45513;-80
2023/12/22 02:11:15;;;;;;;;;3.50;3.50;;;;;13.63;76.59;100727.88;4880186;29;45461;-81
2023/12/22 02:13:45;;;;;;;;;2.00;0.75;;;;;13.64;76.75;100729.69;4865109;29;47269;-81
2023/12/22 02:16:38;;;;;;;;;2.00;1.00;;;;;13.71;76.55;100729.66;4881936;29;45516;-81
2023/12/22 02:19:24;;;;;;;;;2.00;1.25;;;;;13.75;76.57;100723.41;4865052;29;45497;-81
2023/12/22 02:22:05;;;;;;;;;1.00;1.00;;;;;13.82;76.36;100740.38;4865005;29;45753;-81
2023/12/22 02:24:31;;;;;;;;;1.75;1.75;;;;;13.65;76.45;100737.66;4882888;29;46308;-81
2023/12/22 02:27:04;;;;;;;;;1.25;1.25;;;;;13.75;76.41;100743.91;4865954;29;45470;-81
2023/12/22 02:29:37;;;;;;;;;4.00;2.00;;;;;13.73;76.56;100745.69;4881622;29;45434;-82
2023/12/22 02:32:09;;;;;;;;;2.00;2.00;;;;;13.75;76.64;100755.50;4882928;29;45533;-81
2023/12/22 02:34:37;;;;;;;;;2.00;2.00;;;;;13.69;76.51;100744.78;4882434;29;46335;-81
2023/12/22 02:40:25;;;;;;;;;2.00;2.00;;;;;13.62;76.67;100748.38;4882558;29;45344;-80
2023/12/22 02:42:52;;;;;;;;;3.25;2.00;;;;;13.61;76.59;100757.25;4882142;29;45420;-81
2023/12/22 02:45:19;;;;;;;;;3.50;2.00;;;;;13.60;76.99;100771.53;4865286;29;47407;-81
2023/12/22 02:47:45;;;;;;;;;3.00;3.00;;;;;13.53;76.76;100764.38;4865236;29;45480;-81
2023/12/22 02:50:13;;;;;;;;;4.00;4.00;;;;;13.71;76.30;100753.72;4865762;29;45457;-82
2023/12/22 02:52:38;;;;;;;;;4.00;3.00;;;;;13.67;76.42;100751.03;4864757;29;45426;-81
2023/12/22 02:55:04;;;;;;;;;3.00;3.00;;;;;13.73;76.09;100751.94;4881651;29;45516;-81
2023/12/22 02:57:30;;;;;;;;;3.00;2.25;;;;;13.74;75.90;100740.38;4882489;29;45735;-81
2023/12/22 02:59:56;;;;;;;;;2.25;2.25;;;;;13.83;75.47;100747.50;4867091;29;45466;-81
2023/12/22 03:02:21;;;;;;;;;2.50;2.50;;;;;13.80;75.21;100735.03;4885323;29;45349;-81
2023/12/22 03:04:48;;;;;;;;;3.75;1.25;;;;;13.96;75.38;100724.34;4884581;29;45940;-80
2023/12/22 03:07:14;;;;;;;;;4.50;2.00;;;;;13.86;75.26;100731.47;4882948;29;45366;-81
2023/12/22 03:09:39;;;;;;;;;2.75;2.75;;;;;13.92;74.80;100730.59;4885388;28;45599;-81
2023/12/22 03:12:06;;;;;;;;;1.25;1.25;;;;;13.94;74.49;100740.38;4884738;28;45357;-82
2023/12/22 03:14:33;;;;;;;;;1.00;1.00;;;;;13.89;74.53;100731.44;4882815;29;48382;-82
2023/12/22 03:20:20;;;;;;;;;4.00;2.25;;;;;13.82;74.01;100724.34;4884362;29;45397;-81
2023/12/22 03:22:45;;;;;;;;;1.00;1.00;;;;;13.88;74.58;100716.31;4869265;29;45342;-81
2023/12/22 03:25:11;;;;;;;;;3.50;2.25;;;;;13.90;74.14;100717.22;4869414;29;47421;-81
2023/12/22 03:27:36;;;;;;;;;3.75;3.75;;;;;13.93;74.32;100716.31;4884685;29;45441;-80
2023/12/22 03:30:08;;;;;;;;;4.00;2.25;;;;;14.01;74.14;100733.25;4885380;28;45503;-81
2023/12/22 03:32:35;;;;;;;;;3.75;3.00;;;;;13.95;74.42;100741.25;4884658;29;45488;-81
2023/12/22 03:35:00;;;;;;;;;4.00;2.00;;;;;13.86;74.72;100726.13;4884533;28;46233;-81
2023/12/22 03:37:25;;;;;;;;;4.50;3.50;;;;;13.90;74.45;100740.38;4868606;29;45432;-81
2023/12/22 03:39:57;;;;;;;;;2.00;0.75;;;;;13.95;74.84;100719.88;4885796;28;45461;-80
2023/12/22 03:42:23;;;;;;;;;5.25;3.00;;;;;13.94;74.79;100724.34;4885984;29;45438;-81
2023/12/22 03:44:48;;;;;;;;;3.25;3.25;;;;;13.97;74.84;100729.66;4885497;29;45485;-81
2023/12/22 03:47:15;;;;;;;;;0.25;0.25;;;;;13.93;74.73;100737.69;4868870;29;45584;-81
2023/12/22 03:49:40;;;;;;;;;2.75;1.00;;;;;13.89;74.78;100728.78;4869252;29;45661;-81
2023/12/22 03:52:06;;;;;;;;;2.67;2.67;;;;;13.90;74.92;100724.34;4886232;28;45560;-80
2023/12/22 03:54:31;;;;;;;;;3.00;3.00;;;;;13.91;75.15;100728.78;4867733;29;47374;-81
2023/12/22 03:56:56;;;;;;;;;2.25;1.00;;;;;13.86;75.48;100720.78;4874535;29;45454;-80
2023/12/22 03:59:22;;;;;;;;;4.67;4.67;;;;;13.86;75.54;100733.25;4890889;29;45690;-83
2023/12/22 04:01:52;;;;;;;;;2.25;1.00;;;;;13.98;75.71;100725.25;4891913;29;45505;-81
2023/12/22 04:04:18;;;;;;;;;2.67;1.33;;;;;13.86;75.81;100726.13;4891064;29;47533;-81
2023/12/22 04:06:43;;;;;;;;;2.00;1.25;;;;;13.90;76.17;100735.03;4875258;28;45409;-81
2023/12/22 04:09:09;;;;;;;;;1.75;1.00;;;;;13.92;78.14;100743.97;4888700;29;45376;-81
2023/12/22 04:11:36;;;;;;;;;3.50;2.75;;;;;13.79;78.62;100746.63;4891008;29;45508;-81
2023/12/22 04:14:01;;;;;;;;;2.00;2.00;;;;;13.78;79.01;100734.13;4875019;29;47162;-81
2023/12/22 04:16:26;;;;;;;;;0.25;0.25;;;;;13.80;78.98;100743.03;4891754;28;45519;-81
2023/12/22 04:18:52;;;;;;;;;2.50;1.00;;;;;13.77;79.28;100753.72;4874477;29;45539;-81
2023/12/22 04:24:39;;;;;;;;;3.00;3.00;;;;;13.77;80.18;100747.50;4889156;29;45556;-81
2023/12/22 04:27:04;;;;;;;;;3.50;1.00;;;;;13.78;80.96;100750.16;4872743;29;45420;-81
2023/12/22 04:29:30;;;;;;;;;1.50;1.50;;;;;13.67;82.27;100741.22;4889849;29;45703;-81
2023/12/22 04:31:55;;;;;;;;;3.00;1.00;;;;;13.48;83.89;100744.78;4891129;29;55212;-81
2023/12/22 04:34:22;;;;;;;;;2.25;1.75;;;;;13.80;83.49;100737.69;4890853;29;45428;-81
2023/12/22 04:36:47;;;;;;;;;1.00;1.00;;;;;13.68;84.00;100735.03;4873835;29;45526;-81
2023/12/22 04:39:14;;;;;;;;;0.00;0.00;;;;;13.70;84.39;100735.91;4889184;28;45453;-81
2023/12/22 04:41:39;;;;;;;;;0.75;0.00;;;;;13.04;86.68;100732.16;4888641;29;45478;-81
2023/12/22 04:44:04;;;;;;;;;1.75;1.75;;;;;12.74;89.17;100723.13;4889791;29;45732;-82
2023/12/22 04:46:30;;;;;;;;;1.00;1.00;;;;;12.66;91.12;100728.41;4873925;29;46313;-82
2023/12/22 04:48:56;;;;;;;;;1.00;1.00;;;;;12.70;92.19;100753.34;4888733;29;45446;-82
2023/12/22 04:51:21;;;;;;;;;2.00;1.50;;;;;12.73;92.98;100727.56;4891016;29;45409;-81
2023/12/22 04:53:47;;;;;;;;;1.50;1.50;;;;;12.75;93.16;100741.81;4889463;29;46016;-81
2023/12/22 04:56:12;;;;;;;;;0.25;0.25;;;;;12.79;92.98;100727.59;4888559;28;45848;-81
2023/12/22 04:58:37;;;;;;;;;1.00;1.00;;;;;12.88;92.42;100732.06;4888247;29;45430;-82
2023/12/22 05:01:03;;;;;;;;;1.00;1.00;;;;;12.91;92.77;100734.78;4873629;29;45693;-82
2023/12/22 05:03:28;;;;;;;;;4.00;1.00;;;;;12.90;93.07;100726.75;4888419;29;47059;-81
2023/12/22 05:05:54;;;;;;;;;1.00;1.00;;;;;12.89;94.24;100736.53;4873093;29;45713;-82
2023/12/22 05:08:19;;;;;;;;;4.00;2.00;;;;;12.85;96.38;100745.41;4870766;29;45416;-81
2023/12/22 05:10:44;;;;;;;;;1.00;1.00;;;;;12.75;97.58;100754.28;4887238;29;45412;-81
2023/12/22 05:13:10;;;;;;;;;1.00;1.00;;;;;12.81;96.99;100748.97;4888657;29;45305;-81
2023/12/22 05:15:35;;;;;;;;;1.25;0.00;;;;;12.72;97.87;100746.22;4888186;29;45412;-81
2023/12/22 05:18:01;;;;;;;;;1.00;1.00;;;;;12.70;97.53;100738.22;4887694;29;44904;-80
2023/12/22 05:20:26;;;;;;;;;0.00;0.00;;;;;12.66;97.89;100736.41;4886647;29;45700;-81
2023/12/22 05:22:52;;;;;;;;;0.50;0.00;;;;;12.67;97.79;100742.66;4887706;29;45543;-81
2023/12/22 05:25:17;;;;;;;;;1.75;0.00;;;;;12.66;97.92;100746.19;4871072;28;45989;-80
2023/12/22 05:27:49;;;;;;;;;0.00;0.00;;;;;12.77;98.06;100744.50;4886742;29;45510;-83
2023/12/22 05:30:14;;;;;;;;;0.00;0.00;;;;;13.18;94.42;100741.97;4894258;29;44889;-83
2023/12/22 05:32:40;;;;;;;;;1.50;1.50;;;;;12.70;96.67;100732.88;4894839;29;47222;-83
2023/12/22 05:35:06;;;;;;;;;0.00;0.00;;;;;12.71;97.23;100741.78;4894940;28;44769;-83
2023/12/22 05:37:32;;;;;;;;;1.00;1.00;;;;;12.66;97.31;100732.84;4878943;29;44856;-83
2023/12/22 05:39:57;;;;;;;;;1.00;1.00;;;;;12.69;97.30;100730.22;4894610;29;44827;-83
2023/12/22 05:42:22;;;;;;;;;1.50;0.00;;;;;12.80;97.20;100739.16;4878170;29;47073;-83
2023/12/22 05:44:49;;;;;;;;;1.00;1.00;;;;;12.80;96.85;100731.16;4894636;29;45457;-83
2023/12/22 05:47:16;;;;;;;;;1.00;1.00;;;;;12.79;96.83;100732.06;4878075;29;45250;-83
2023/12/22 05:49:47;;;;;;;;;0.50;0.50;;;;;12.79;97.10;100730.25;4895479;29;44889;-83
2023/12/22 05:52:13;;;;;;;;;1.00;1.00;;;;;12.88;96.90;100723.19;4895404;29;45610;-84
2023/12/22 05:54:39;;;;;;;;;0.00;0.00;;;;;12.87;96.88;100729.41;4893888;29;44952;-84
2023/12/22 05:57:06;;;;;;;;;1.00;0.00;;;;;12.84;96.96;100724.94;4893292;29;45366;-84
2023/12/22 05:59:32;;;;;;;;;1.75;1.75;;;;;12.83;96.91;100715.16;4894354;29;44835;-83
2023/12/22 06:01:58;;;;;;;;;0.00;0.00;;;;;12.86;97.54;100723.16;4894979;29;45176;-83
2023/12/22 06:04:25;;;;;;;;;0.00;0.00;;;;;12.87;97.32;100735.66;4894571;29;44917;-83
2023/12/22 06:07:29;;;;;;;;;0.75;0.75;;;;;12.98;97.20;100725.00;4892767;29;44910;-83
2023/12/22 06:10:01;;;;;;;;;1.00;0.25;;;;;12.98;98.12;100730.34;4894569;29;45015;-82
2023/12/22 06:12:26;;;;;;;;;1.25;0.00;;;;;12.84;97.68;100734.72;4894916;28;45391;-83
2023/12/22 06:14:51;;;;;;;;;0.75;0.75;;;;;12.84;97.83;100734.72;4893474;29;44811;-83
2023/12/22 06:17:17;;;;;;;;;1.00;0.25;;;;;12.83;97.77;100733.84;4893998;29;44869;-83
2023/12/22 06:19:43;;;;;;;;;1.00;1.00;;;;;12.90;98.00;100740.09;4894145;29;45938;-83
2023/12/22 06:22:08;;;;;;;;;0.75;0.75;;;;;12.83;97.91;100730.28;4876511;29;44933;-84
2023/12/22 06:24:35;;;;;;;;;0.00;0.00;;;;;12.92;98.63;100752.56;4892546;29;44774;-84
2023/12/22 06:27:01;;;;;;;;;0.00;0.00;;;;;12.75;100.00;100746.25;4893137;29;44964;-84
2023/12/22 06:29:26;;;;;;;;;0.00;0.00;;;;;12.65;100.00;100749.78;4895250;29;44803;-84
2023/12/22 06:31:52;;;;;;;;;1.75;0.75;;;;;12.57;100.00;100753.28;4893109;29;47024;-83
2023/12/22 06:34:17;;;;;;;;;1.50;0.75;;;;;12.52;100.00;100731.03;4877095;29;44837;-83
2023/12/22 06:36:43;;;;;;;;;0.50;0.50;;;;;12.54;100.00;100737.25;4893814;29;44848;-83
2023/12/22 06:39:08;;;;;;;;;2.50;1.00;;;;;12.58;100.00;100741.72;4893695;29;44784;-83
2023/12/22 06:41:34;;;;;;;;;4.00;2.25;;;;;12.71;100.00;100755.13;4893933;29;45315;-83
2023/12/22 06:43:59;;;;;;;;;1.75;1.00;;;;;12.75;100.00;100751.59;4875698;29;45321;-85
2023/12/22 06:46:26;;;;;;;;;2.75;1.00;;;;;12.76;100.00;100737.34;4877092;29;44884;-84
2023/12/22 06:48:52;;;;;;;;;1.50;0.50;;;;;12.80;100.00;100744.50;4875061;29;44879;-85
2023/12/22 06:51:30;;;;;;;;;0.00;0.00;;;;;12.88;100.00;100736.53;4875451;29;47515;-85
2023/12/22 06:53:56;;;;;;;;;1.25;0.75;;;;;12.85;100.00;100737.41;4880483;29;45283;-84
2023/12/22 06:56:54;;;;;;;;;1.00;0.25;;;;;12.94;100.00;100728.53;4894791;29;45332;-84
2023/12/22 06:59:20;;;;;;;;;2.00;0.00;;;;;12.88;100.00;100732.06;4874468;29;45324;-84
2023/12/22 07:01:45;;;;;;;;;2.00;1.00;;;;;12.81;100.00;100723.16;4871873;29;46977;-83
2023/12/22 07:04:12;;;;;;;;;0.00;0.00;;;;;12.89;100.00;100727.66;4875662;29;45408;-82
2023/12/22 07:06:37;;;;;;;;;1.00;1.00;;;;;12.80;100.00;100726.72;4875335;29;44794;-85
2023/12/22 07:09:12;;;;;;;;;0.00;0.00;;;;;12.96;100.00;100735.66;4862616;29;44928;-84
2023/12/22 07:11:38;;;;;;;;;0.25;0.25;;;;;12.85;100.00;100726.75;4843887;29;47024;-85
2023/12/22 07:14:04;;;;;;;;;2.00;0.00;;;;;12.85;100.00;100741.88;4841745;29;45713;-84
2023/12/22 07:16:29;;;;;;;;;0.50;0.00;;;;;12.87;100.00;100734.75;4874290;24;44921;-85
2023/12/22 07:18:55;;;;;;;;;0.00;0.00;;;;;12.83;100.00;100744.53;4895334;29;44878;-84
2023/12/22 07:21:21;;;;;;;;;0.50;0.00;;;;;12.83;100.00;100755.19;4892001;29;54453;-83
2023/12/22 07:23:46;;;;;;;;;0.50;0.50;;;;;12.71;100.00;100755.13;4909106;29;45323;-84
2023/12/22 07:26:12;;;;;;;;;1.00;1.00;;;;;12.52;100.00;100749.69;4885666;29;44839;-84
2023/12/22 07:28:38;;;;;;;;;2.00;0.25;;;;;12.58;100.00;100749.72;4875168;28;44913;-84
2023/12/22 07:31:06;;;;;;;;;0.75;0.75;;;;;12.50;100.00;100739.88;4893515;28;45286;-84
2023/12/22 07:33:32;;;;;;;;;0.75;0.75;;;;;12.53;100.00;100755.91;4882364;28;44967;-83
2023/12/22 07:35:57;;;;;;;;;2.50;1.50;;;;;12.53;100.00;100745.25;4876726;29;45421;-84
2023/12/22 07:38:23;;;;;;;;;1.00;0.00;;;;;12.60;100.00;100761.31;4899098;29;44788;-83
2023/12/22 07:40:49;;;;;;;;;3.00;2.00;;;;;12.66;100.00;100765.75;4877560;29;47366;-84
2023/12/22 07:43:15;;;;;;;;;2.25;0.50;;;;;12.74;100.00;100776.47;4892530;29;45401;-84
2023/12/22 07:45:41;;;;;;;;;0.00;0.00;;;;;12.79;100.00;100777.41;4864106;29;45292;-85
2023/12/22 07:48:06;;;;;;;;;1.00;1.00;;;;;12.97;100.00;100784.63;4876217;29;45341;-85
2023/12/22 07:50:32;;;;;;;;;3.00;2.00;;;;;12.97;100.00;100785.50;4874583;29;48578;-84
2023/12/22 07:53:00;;;;;;;;;1.25;1.00;;;;;13.00;100.00;100785.50;4892749;29;44713;-83
2023/12/22 07:55:26;;;;;;;;;0.00;0.00;;;;;13.01;100.00;100770.41;4889303;29;45554;-83
2023/12/22 07:57:55;;;;;;;;;0.75;0.75;;;;;12.92;100.00;100781.91;4893212;28;44943;-84
2023/12/22 08:00:21;;;;;;;;;2.00;0.00;;;;;12.67;100.00;100772.00;4880927;29;45155;-84
2023/12/22 08:02:46;;;;;;;;;0.25;0.25;;;;;12.81;100.00;100783.66;4899119;28;44711;-84
2023/12/22 08:05:13;;;;;;;;;0.00;0.00;;;;;13.09;100.00;100797.13;4884732;28;44765;-84
2023/12/22 08:07:43;;;;;;;;;0.50;0.25;;;;;12.84;100.00;100789.00;4883476;28;44862;-84
2023/12/22 08:10:09;;;;;;;;;1.00;0.00;;;;;13.01;100.00;100800.66;4879356;29;47578;-83
2023/12/22 08:12:35;;;;;;;;;0.00;0.00;;;;;12.86;100.00;100811.25;4877397;29;45588;-84
2023/12/22 08:15:02;;;;;;;;;0.00;0.00;;;;;12.91;100.00;100793.50;4888284;29;45422;-83
2023/12/22 08:17:35;;;;;;;;;1.00;0.00;;;;;12.97;100.00;100808.66;4880790;29;45366;-83
2023/12/22 08:20:00;;;;;;;;;1.00;1.00;;;;;12.95;100.00;100791.75;4869693;29;47238;-83
2023/12/22 08:22:26;;;;;;;;;0.00;0.00;;;;;13.20;100.00;100800.75;4896271;29;45490;-83
2023/12/22 08:24:53;;;;;;;;;0.00;0.00;;;;;13.45;100.00;100806.22;4890698;29;45321;-82
2023/12/22 08:27:18;;;;;;;;;0.75;0.75;;;;;13.32;100.00;100808.84;4907661;28;45610;-83
2023/12/22 08:30:34;;;;;;;;;1.75;0.50;;;;;13.54;100.00;100801.78;4891300;29;47894;-83
2023/12/22 08:32:59;;;;;;;;;0.75;0.75;;;;;13.27;100.00;100793.63;4887504;29;44965;-82
2023/12/22 08:35:24;;;;;;;;;2.25;1.00;;;;;13.43;100.00;100797.28;4909089;28;45364;-83
2023/12/22 08:37:50;;;;;;;;;1.00;0.00;;;;;13.49;100.00;100799.97;4905389;28;45012;-83
2023/12/22 08:40:27;;;;;;;;;0.00;0.00;;;;;13.70;99.73;100800.06;4908612;28;45475;-84
2023/12/22 08:42:59;;;;;;;;;1.50;1.00;;;;;13.68;98.78;100804.50;4899036;29;44911;-82
2023/12/22 08:45:28;;;;;;;;;0.00;0.00;;;;;13.52;98.35;100767.94;4911801;28;45269;-84
2023/12/22 08:47:55;;;;;;;;;0.00;0.00;;;;;13.31;99.42;100785.69;4881925;29;44853;-84
2023/12/22 08:50:20;;;;;;;;;2.00;1.00;;;;;13.33;100.00;100788.34;4887417;29;46966;-84
2023/12/22 08:52:46;;;;;;;;;0.00;0.00;;;;;13.35;100.00;100783.91;4911699;28;45572;-84
2023/12/22 08:55:13;;;;;;;;;0.50;0.50;;;;;13.56;100.00;100807.16;4885804;29;45277;-84
2023/12/22 08:57:39;;;;;;;;;1.50;0.50;;;;;13.48;100.00;100803.56;4901614;29;45426;-83
2023/12/22 09:00:05;;;;;;;;;1.00;1.00;;;;;13.47;100.00;100796.41;4896560;29;47543;-83
2023/12/22 09:02:31;;;;;;;;;0.00;0.00;;;;;13.73;98.43;100794.69;4896047;28;45162;-82
2023/12/22 09:05:07;;;;;;;;;1.00;1.00;;;;;14.08;97.08;100798.31;4889750;29;45052;-83
2023/12/22 09:07:32;;;;;;;;;1.50;0.75;;;;;13.72;95.86;100762.66;4896197;29;44937;-84
2023/12/22 09:09:58;;;;;;;;;0.33;0.33;;;;;13.77;94.35;100775.09;4909463;28;46985;-83
2023/12/22 09:13:02;;;;;;;;;1.00;1.00;;;;;13.35;94.73;100782.16;4895583;29;45384;-83
2023/12/22 09:15:21;;;;;;;;;1.75;1.00;;;;;13.31;95.75;100793.72;4908952;29;45329;-83
2023/12/22 09:17:46;;;;;;;;;0.00;0.00;;;;;13.10;96.91;100765.09;4876442;29;44831;-82
2023/12/22 09:20:13;;;;;;;;;0.00;0.00;;;;;13.43;97.21;100822.22;4916799;23;45322;-83
2023/12/22 09:25:14;;;;;;;;;1.67;1.67;;;;;13.83;94.84;100832.16;5100161;23;46882;-86
2023/12/22 09:27:40;;;;;;;;;4.75;2.00;;;;;13.80;93.94;100814.34;4899074;29;44955;-84
2023/12/22 09:35:59;;;;;;;;;;;;;;;;;;;;;
2023/12/22 09:38:31;;;;;;;;;2.33;1.67;;;;;13.16;99.08;100777.59;4892099;29;65061;-81
2023/12/22 09:41:38;;;;;;;;;0.00;0.00;;;;;13.39;99.65;100844.47;4879307;29;48462;-84
2023/12/22 09:58:35;;;;;;;;;0.75;0.75;;;;;13.36;99.89;100841.81;4808390;29;45482;-82
2023/12/22 10:01:23;;;;;;;;;2.00;0.00;;;;;13.36;98.81;100831.13;4833099;29;44829;-82
2023/12/22 10:03:49;;;;;;;;;0.00;0.00;;;;;13.39;98.39;100834.72;4816956;29;47180;-81
2023/12/22 10:06:16;;;;;;;;;1.00;1.00;;;;;13.50;97.21;100839.19;4826072;29;45763;-83
2023/12/22 10:09:07;;;;;;;;;0.00;0.00;;;;;13.46;97.55;100854.31;4798908;29;45349;-82
2023/12/22 10:11:38;;;;;;;;;1.75;1.75;;;;;13.15;97.10;100818.53;4799742;29;45384;-83
2023/12/22 10:14:07;;;;;;;;;0.00;0.00;;;;;13.29;96.85;100843.56;4797488;29;47232;-83
2023/12/22 10:16:34;;;;;;;;;1.75;1.00;;;;;13.38;97.77;100835.56;4795693;29;45411;-82
2023/12/22 10:19:00;;;;;;;;;2.33;1.33;;;;;13.46;96.69;100856.09;4794021;29;45561;-81
2023/12/22 10:21:26;;;;;;;;;1.50;1.25;;;;;13.51;94.72;100815.16;4779506;29;45467;-82
2023/12/22 10:23:52;;;;;;;;;2.00;1.00;;;;;13.53;94.80;100853.47;4778875;29;46038;-81
2023/12/22 10:26:21;;;;;;;;;1.00;1.00;;;;;13.57;95.99;100868.63;4795541;29;44901;-82
2023/12/22 10:29:28;;;;;;;;;0.00;0.00;;;;;13.70;93.61;100858.84;4809918;29;45903;-83
2023/12/22 10:31:54;;;;;;;;;4.00;4.00;;;;;13.50;94.60;100841.88;4795329;29;45641;-82
2023/12/22 10:34:25;;;;;;;;;2.00;2.00;;;;;13.52;95.41;100848.09;4850124;29;45491;-82
2023/12/22 10:37:01;;;;;;;;;1.00;1.00;;;;;13.46;97.95;100810.69;4849320;29;45984;-83
2023/12/22 10:39:40;;;;;;;;;1.00;1.00;;;;;13.30;100.00;100840.00;4850572;29;45500;-82
2023/12/22 10:42:06;;;;;;;;;4.33;4.00;;;;;12.99;100.00;100850.50;4831219;29;44970;-83
2023/12/22 10:44:35;;;;;;;;;1.33;1.33;;;;;12.79;100.00;100839.69;4883294;29;45323;-81
2023/12/22 10:47:01;;;;;;;;;1.00;1.00;;;;;12.65;100.00;100849.38;4874173;29;44845;-84
2023/12/22 10:49:26;;;;;;;;;1.00;1.00;;;;;12.61;100.00;100859.13;4861180;29;45455;-82
2023/12/22 10:51:52;;;;;;;;;4.67;3.00;;;;;12.48;100.00;100825.25;4876298;29;44988;-80
2023/12/22 10:54:39;;;;;;;;;1.75;1.75;;;;;12.48;100.00;100822.59;4866077;29;46939;-83
2023/12/22 10:57:11;;;;;;;;;2.00;2.00;;;;;12.45;100.00;100833.22;4860799;29;44959;-82
2023/12/22 10:59:51;;;;;;;;;3.00;3.00;;;;;12.58;100.00;100845.78;4857066;29;45476;-81
2023/12/22 11:02:22;;;;;;;;;2.25;2.25;;;;;12.49;100.00;100839.47;4871842;29;45395;-82
2023/12/22 11:05:45;;;;;;;;;2.00;2.00;;;;;13.58;100.00;100845.44;4875960;29;45164;-82
2023/12/22 11:08:36;;;;;;;;;4.00;2.33;;;;;14.57;100.00;100858.09;4871928;28;44709;-82
2023/12/22 11:11:33;;;;;;;;;2.00;2.00;;;;;14.38;100.00;100853.59;4875996;29;45524;-81
2023/12/22 11:14:16;;;;;;;;;2.25;2.25;;;;;14.06;100.00;100819.72;4876145;28;45506;-84
2023/12/22 11:17:03;;;;;;;;;2.00;2.00;;;;;14.26;100.00;100810.78;4863977;29;46695;-84
2023/12/22 11:19:42;;;;;;;;;3.67;3.67;;;;;14.14;100.00;100820.63;4853087;29;44842;-84
2023/12/22 11:22:09;;;;;;;;;5.33;2.67;;;;;13.77;100.00;100777.78;4888598;29;45404;-81
2023/12/22 11:24:46;;;;;;;;;3.00;3.00;;;;;14.18;100.00;100827.75;4872244;29;44965;-83
2023/12/22 11:27:28;;;;;;;;;2.33;2.33;;;;;14.06;100.00;100811.69;4872238;29;45842;-84
2023/12/22 11:30:04;;;;;;;;;8.00;5.00;;;;;13.96;100.00;100793.88;5242109;23;46645;-82
2023/12/22 11:33:02;;;;;;;;;4.00;4.00;;;;;13.99;100.00;100804.56;4854583;29;45379;-85
2023/12/22 11:35:29;;;;;;;;;9.33;8.00;;;;;13.82;100.00;100801.88;4800546;29;45705;-81
2023/12/22 11:38:32;;;;;;;;;3.00;2.33;;;;;13.95;100.00;100776.91;4799569;29;46844;-82
2023/12/22 11:41:00;;;;;;;;;2.25;1.00;;;;;14.04;100.00;100794.75;4742397;29;45509;-81
2023/12/22 11:43:27;;;;;;;;;2.67;2.00;;;;;13.83;100.00;100778.69;4756445;29;45463;-81
2023/12/22 11:46:08;;;;;;;;;2.75;1.75;;;;;14.27;100.00;100818.81;4756868;29;45421;-81
2023/12/22 11:49:02;;;;;;;;;1.00;1.00;;;;;14.36;100.00;100807.22;4756590;29;47333;-83
2023/12/22 11:51:53;;;;;;;;;2.25;1.00;;;;;14.28;100.00;100833.09;4739414;29;45425;-82
2023/12/22 11:55:06;;;;;;;;;7.75;2.75;;;;;14.35;100.00;100837.56;4743877;29;44807;-82
2023/12/22 12:41:53;;;;;;;;;2.00;2.00;;;;;14.81;94.63;100853.63;5924020;23;46812;31
2023/12/22 12:44:35;;;;;;;;;2.33;2.33;;;;;14.73;96.31;100817.94;4857467;29;44861;-85
2023/12/22 12:47:16;;;;;;;;;9.00;5.00;;;;;14.31;100.00;100801.00;4844829;29;44902;-85
2023/12/22 12:50:38;;;;;;;;;8.00;2.33;;;;;13.89;100.00;100818.78;4842300;29;45425;-85
2023/12/22 12:53:37;;;;;;;;;2.00;2.00;;;;;13.92;95.06;100840.22;4862445;29;44817;-84